sensor_id;sensor_type;location;lat;lon;timestamp;P1;durP1;ratioP1;P2;durP2;ratioP2
52104;SDS011;38103;42.776;23.112;2023-03-01T00:01:03;13.20;;;5.15;;
52104;SDS011;38103;42.776;23.112;2023-03-01T00:03:30;12.90;;;4.72;;
52104;SDS011;38103;42.776;23.112;2023-03-01T00:05:56;12.93;;;5.05;;
52104;SDS011;38103;42.776;23.112;2023-03-01T00:08:22;10.98;;;4.43;;
52104;SDS011;38103;42.776;23.112;2023-03-01T00:10:47;12.93;;;5.30;;
52104;SDS011;38103;42.776;23.112;2023-03-01T00:13:13;12.10;;;4.80;;
52104;SDS011;38103;42.776;23.112;2023-03-01T00:15:39;12.80;;;5.07;;
52104;SDS011;38103;42.776;23.112;2023-03-01T00:18:05;11.82;;;4.78;;
52104;SDS011;38103;42.776;23.112;2023-03-01T00:20:30;12.30;;;5.05;;
52104;SDS011;38103;42.776;23.112;2023-03-01T00:22:56;11.80;;;4.82;;
52104;SDS011;38103;42.776;23.112;2023-03-01T00:25:21;11.38;;;4.50;;
52104;SDS011;38103;42.776;23.112;2023-03-01T00:27:46;10.55;;;4.22;;
52104;SDS011;38103;42.776;23.112;2023-03-01T00:30:13;10.95;;;4.25;;
52104;SDS011;38103;42.776;23.112;2023-03-01T00:32:39;12.05;;;4.40;;
52104;SDS011;38103;42.776;23.112;2023-03-01T00:35:04;11.23;;;4.43;;
52104;SDS011;38103;42.776;23.112;2023-03-01T00:37:30;10.63;;;4.10;;
52104;SDS011;38103;42.776;23.112;2023-03-01T00:39:56;10.32;;;4.25;;
52104;SDS011;38103;42.776;23.112;2023-03-01T00:42:21;13.35;;;4.75;;
52104;SDS011;38103;42.776;23.112;2023-03-01T00:44:47;11.10;;;4.65;;
52104;SDS011;38103;42.776;23.112;2023-03-01T00:47:12;11.75;;;4.50;;
52104;SDS011;38103;42.776;23.112;2023-03-01T00:49:38;10.52;;;4.78;;
52104;SDS011;38103;42.776;23.112;2023-03-01T00:52:04;12.20;;;4.40;;
52104;SDS011;38103;42.776;23.112;2023-03-01T00:54:29;11.38;;;4.20;;
52104;SDS011;38103;42.776;23.112;2023-03-01T00:56:55;11.70;;;4.32;;
52104;SDS011;38103;42.776;23.112;2023-03-01T00:59:20;12.05;;;4.93;;
52104;SDS011;38103;42.776;23.112;2023-03-01T01:01:45;13.57;;;5.00;;
52104;SDS011;38103;42.776;23.112;2023-03-01T01:04:11;10.77;;;3.80;;
52104;SDS011;38103;42.776;23.112;2023-03-01T01:06:43;12.73;;;5.13;;
52104;SDS011;38103;42.776;23.112;2023-03-01T01:09:10;12.00;;;4.03;;
52104;SDS011;38103;42.776;23.112;2023-03-01T01:11:44;10.10;;;3.88;;
52104;SDS011;38103;42.776;23.112;2023-03-01T01:14:12;10.32;;;3.80;;
52104;SDS011;38103;42.776;23.112;2023-03-01T01:16:38;10.52;;;4.20;;
52104;SDS011;38103;42.776;23.112;2023-03-01T01:19:03;10.82;;;4.05;;
52104;SDS011;38103;42.776;23.112;2023-03-01T01:21:29;10.15;;;3.63;;
52104;SDS011;38103;42.776;23.112;2023-03-01T01:23:55;10.18;;;3.78;;
52104;SDS011;38103;42.776;23.112;2023-03-01T01:26:22;10.85;;;4.00;;
52104;SDS011;38103;42.776;23.112;2023-03-01T01:28:49;10.80;;;3.80;;
52104;SDS011;38103;42.776;23.112;2023-03-01T01:31:16;9.80;;;3.70;;
52104;SDS011;38103;42.776;23.112;2023-03-01T01:33:42;12.32;;;4.03;;
52104;SDS011;38103;42.776;23.112;2023-03-01T01:36:08;11.93;;;4.30;;
52104;SDS011;38103;42.776;23.112;2023-03-01T01:38:34;10.52;;;3.67;;
52104;SDS011;38103;42.776;23.112;2023-03-01T01:41:02;12.43;;;3.95;;
52104;SDS011;38103;42.776;23.112;2023-03-01T01:43:34;10.05;;;3.95;;
52104;SDS011;38103;42.776;23.112;2023-03-01T01:46:05;10.70;;;4.40;;
52104;SDS011;38103;42.776;23.112;2023-03-01T01:48:48;10.20;;;4.07;;
52104;SDS011;38103;42.776;23.112;2023-03-01T01:51:25;10.18;;;3.70;;
52104;SDS011;38103;42.776;23.112;2023-03-01T01:54:03;10.05;;;3.67;;
52104;SDS011;38103;42.776;23.112;2023-03-01T01:56:34;9.27;;;3.70;;
52104;SDS011;38103;42.776;23.112;2023-03-01T01:59:02;9.82;;;3.80;;
52104;SDS011;38103;42.776;23.112;2023-03-01T02:01:28;11.10;;;3.85;;
52104;SDS011;38103;42.776;23.112;2023-03-01T02:03:54;9.35;;;3.75;;
52104;SDS011;38103;42.776;23.112;2023-03-01T02:06:29;10.13;;;4.30;;
52104;SDS011;38103;42.776;23.112;2023-03-01T02:09:00;10.23;;;3.85;;
52104;SDS011;38103;42.776;23.112;2023-03-01T02:11:30;10.77;;;4.20;;
52104;SDS011;38103;42.776;23.112;2023-03-01T02:13:57;9.95;;;4.07;;
52104;SDS011;38103;42.776;23.112;2023-03-01T02:16:24;8.98;;;3.58;;
52104;SDS011;38103;42.776;23.112;2023-03-01T02:18:51;10.25;;;3.90;;
52104;SDS011;38103;42.776;23.112;2023-03-01T02:21:37;9.50;;;4.00;;
52104;SDS011;38103;42.776;23.112;2023-03-01T02:24:27;10.70;;;4.10;;
52104;SDS011;38103;42.776;23.112;2023-03-01T02:26:55;9.82;;;4.07;;
52104;SDS011;38103;42.776;23.112;2023-03-01T02:29:22;8.93;;;3.55;;
52104;SDS011;38103;42.776;23.112;2023-03-01T02:31:49;8.95;;;3.47;;
52104;SDS011;38103;42.776;23.112;2023-03-01T02:34:20;9.05;;;3.65;;
52104;SDS011;38103;42.776;23.112;2023-03-01T02:37:11;8.63;;;3.20;;
52104;SDS011;38103;42.776;23.112;2023-03-01T02:39:40;9.18;;;3.33;;
52104;SDS011;38103;42.776;23.112;2023-03-01T02:42:10;8.88;;;3.20;;
52104;SDS011;38103;42.776;23.112;2023-03-01T02:44:39;9.32;;;3.58;;
52104;SDS011;38103;42.776;23.112;2023-03-01T02:47:04;9.20;;;3.50;;
52104;SDS011;38103;42.776;23.112;2023-03-01T02:49:32;8.10;;;2.92;;
52104;SDS011;38103;42.776;23.112;2023-03-01T02:54:50;8.90;;;3.42;;
52104;SDS011;38103;42.776;23.112;2023-03-01T02:57:23;8.63;;;3.25;;
52104;SDS011;38103;42.776;23.112;2023-03-01T02:59:52;8.15;;;3.10;;
52104;SDS011;38103;42.776;23.112;2023-03-01T03:02:29;8.15;;;3.35;;
52104;SDS011;38103;42.776;23.112;2023-03-01T03:07:31;8.68;;;3.38;;
52104;SDS011;38103;42.776;23.112;2023-03-01T03:09:59;8.52;;;2.95;;
52104;SDS011;38103;42.776;23.112;2023-03-01T03:12:24;9.30;;;3.22;;
52104;SDS011;38103;42.776;23.112;2023-03-01T03:14:50;10.75;;;3.20;;
52104;SDS011;38103;42.776;23.112;2023-03-01T03:17:15;9.43;;;3.28;;
52104;SDS011;38103;42.776;23.112;2023-03-01T03:19:40;8.73;;;3.13;;
52104;SDS011;38103;42.776;23.112;2023-03-01T03:22:06;8.30;;;2.95;;
52104;SDS011;38103;42.776;23.112;2023-03-01T03:24:33;8.10;;;2.80;;
52104;SDS011;38103;42.776;23.112;2023-03-01T03:27:03;8.38;;;3.08;;
52104;SDS011;38103;42.776;23.112;2023-03-01T03:29:30;8.40;;;3.00;;
52104;SDS011;38103;42.776;23.112;2023-03-01T03:31:56;9.57;;;2.70;;
52104;SDS011;38103;42.776;23.112;2023-03-01T03:34:21;7.80;;;2.63;;
52104;SDS011;38103;42.776;23.112;2023-03-01T03:36:47;9.85;;;2.78;;
52104;SDS011;38103;42.776;23.112;2023-03-01T03:39:12;10.23;;;3.15;;
52104;SDS011;38103;42.776;23.112;2023-03-01T03:41:38;8.15;;;2.97;;
52104;SDS011;38103;42.776;23.112;2023-03-01T03:44:03;9.80;;;3.83;;
52104;SDS011;38103;42.776;23.112;2023-03-01T03:46:47;12.40;;;5.78;;
52104;SDS011;38103;42.776;23.112;2023-03-01T03:49:12;9.20;;;3.70;;
52104;SDS011;38103;42.776;23.112;2023-03-01T03:51:38;10.63;;;4.38;;
52104;SDS011;38103;42.776;23.112;2023-03-01T03:54:03;9.55;;;3.53;;
52104;SDS011;38103;42.776;23.112;2023-03-01T03:56:29;11.32;;;4.50;;
52104;SDS011;38103;42.776;23.112;2023-03-01T04:01:56;8.13;;;3.10;;
52104;SDS011;38103;42.776;23.112;2023-03-01T04:04:21;8.80;;;3.65;;
52104;SDS011;38103;42.776;23.112;2023-03-01T04:06:47;9.30;;;3.30;;
52104;SDS011;38103;42.776;23.112;2023-03-01T04:09:13;8.82;;;3.35;;
52104;SDS011;38103;42.776;23.112;2023-03-01T04:11:38;10.10;;;3.83;;
52104;SDS011;38103;42.776;23.112;2023-03-01T04:14:04;9.93;;;3.22;;
52104;SDS011;38103;42.776;23.112;2023-03-01T04:16:29;10.20;;;3.88;;
52104;SDS011;38103;42.776;23.112;2023-03-01T04:18:54;8.70;;;3.63;;
52104;SDS011;38103;42.776;23.112;2023-03-01T04:21:20;8.57;;;3.38;;
52104;SDS011;38103;42.776;23.112;2023-03-01T04:23:46;8.32;;;3.10;;
52104;SDS011;38103;42.776;23.112;2023-03-01T04:26:11;9.00;;;3.55;;
52104;SDS011;38103;42.776;23.112;2023-03-01T04:28:38;8.68;;;3.13;;
52104;SDS011;38103;42.776;23.112;2023-03-01T04:31:09;8.05;;;2.92;;
52104;SDS011;38103;42.776;23.112;2023-03-01T04:36:11;7.47;;;2.78;;
52104;SDS011;38103;42.776;23.112;2023-03-01T04:38:38;10.32;;;3.15;;
52104;SDS011;38103;42.776;23.112;2023-03-01T04:41:07;8.80;;;2.72;;
52104;SDS011;38103;42.776;23.112;2023-03-01T04:43:35;7.35;;;2.60;;
52104;SDS011;38103;42.776;23.112;2023-03-01T04:46:01;7.65;;;2.53;;
52104;SDS011;38103;42.776;23.112;2023-03-01T04:48:28;7.88;;;2.67;;
52104;SDS011;38103;42.776;23.112;2023-03-01T04:50:53;6.90;;;2.60;;
52104;SDS011;38103;42.776;23.112;2023-03-01T04:53:19;7.20;;;2.55;;
52104;SDS011;38103;42.776;23.112;2023-03-01T04:55:44;7.07;;;2.67;;
52104;SDS011;38103;42.776;23.112;2023-03-01T04:58:09;7.57;;;2.78;;
52104;SDS011;38103;42.776;23.112;2023-03-01T05:00:35;9.65;;;3.08;;
52104;SDS011;38103;42.776;23.112;2023-03-01T05:03:00;8.38;;;3.00;;
52104;SDS011;38103;42.776;23.112;2023-03-01T05:05:33;8.38;;;3.20;;
52104;SDS011;38103;42.776;23.112;2023-03-01T05:08:02;9.30;;;3.55;;
52104;SDS011;38103;42.776;23.112;2023-03-01T05:10:31;8.73;;;3.17;;
52104;SDS011;38103;42.776;23.112;2023-03-01T05:12:59;10.68;;;3.05;;
52104;SDS011;38103;42.776;23.112;2023-03-01T05:15:26;7.93;;;2.72;;
52104;SDS011;38103;42.776;23.112;2023-03-01T05:17:53;8.80;;;3.15;;
52104;SDS011;38103;42.776;23.112;2023-03-01T05:20:19;8.20;;;2.83;;
52104;SDS011;38103;42.776;23.112;2023-03-01T05:22:49;9.48;;;3.05;;
52104;SDS011;38103;42.776;23.112;2023-03-01T05:25:16;7.90;;;3.00;;
52104;SDS011;38103;42.776;23.112;2023-03-01T05:27:41;7.97;;;2.90;;
52104;SDS011;38103;42.776;23.112;2023-03-01T05:30:08;7.70;;;2.85;;
52104;SDS011;38103;42.776;23.112;2023-03-01T05:32:43;8.10;;;3.00;;
52104;SDS011;38103;42.776;23.112;2023-03-01T05:35:14;9.43;;;3.53;;
52104;SDS011;38103;42.776;23.112;2023-03-01T05:37:44;8.93;;;3.50;;
52104;SDS011;38103;42.776;23.112;2023-03-01T05:40:12;8.50;;;3.47;;
52104;SDS011;38103;42.776;23.112;2023-03-01T05:42:46;9.15;;;3.58;;
52104;SDS011;38103;42.776;23.112;2023-03-01T05:45:14;9.00;;;3.53;;
52104;SDS011;38103;42.776;23.112;2023-03-01T05:47:40;8.75;;;3.25;;
52104;SDS011;38103;42.776;23.112;2023-03-01T05:50:20;8.15;;;3.10;;
52104;SDS011;38103;42.776;23.112;2023-03-01T05:52:59;7.90;;;2.92;;
52104;SDS011;38103;42.776;23.112;2023-03-01T05:55:27;8.45;;;2.90;;
52104;SDS011;38103;42.776;23.112;2023-03-01T05:57:53;7.63;;;2.92;;
52104;SDS011;38103;42.776;23.112;2023-03-01T06:00:20;7.05;;;2.83;;
52104;SDS011;38103;42.776;23.112;2023-03-01T06:02:49;8.57;;;2.78;;
52104;SDS011;38103;42.776;23.112;2023-03-01T06:05:15;8.93;;;3.03;;
52104;SDS011;38103;42.776;23.112;2023-03-01T06:07:40;8.73;;;3.35;;
52104;SDS011;38103;42.776;23.112;2023-03-01T06:10:07;9.52;;;3.65;;
52104;SDS011;38103;42.776;23.112;2023-03-01T06:12:35;9.00;;;2.90;;
52104;SDS011;38103;42.776;23.112;2023-03-01T06:15:02;8.10;;;2.90;;
52104;SDS011;38103;42.776;23.112;2023-03-01T06:17:29;10.65;;;4.50;;
52104;SDS011;38103;42.776;23.112;2023-03-01T06:19:55;11.45;;;4.25;;
52104;SDS011;38103;42.776;23.112;2023-03-01T06:22:21;10.95;;;4.63;;
52104;SDS011;38103;42.776;23.112;2023-03-01T06:24:46;10.30;;;3.72;;
52104;SDS011;38103;42.776;23.112;2023-03-01T06:27:12;8.38;;;3.13;;
52104;SDS011;38103;42.776;23.112;2023-03-01T06:29:37;9.18;;;3.22;;
52104;SDS011;38103;42.776;23.112;2023-03-01T06:32:03;9.23;;;3.13;;
52104;SDS011;38103;42.776;23.112;2023-03-01T06:34:28;10.80;;;2.90;;
52104;SDS011;38103;42.776;23.112;2023-03-01T06:36:54;8.57;;;3.10;;
52104;SDS011;38103;42.776;23.112;2023-03-01T06:39:19;8.00;;;2.90;;
52104;SDS011;38103;42.776;23.112;2023-03-01T06:41:45;9.45;;;3.13;;
52104;SDS011;38103;42.776;23.112;2023-03-01T06:44:10;8.98;;;3.08;;
52104;SDS011;38103;42.776;23.112;2023-03-01T06:46:35;8.98;;;3.38;;
52104;SDS011;38103;42.776;23.112;2023-03-01T06:49:01;10.32;;;3.92;;
52104;SDS011;38103;42.776;23.112;2023-03-01T06:51:29;12.05;;;4.18;;
52104;SDS011;38103;42.776;23.112;2023-03-01T06:53:55;15.15;;;6.05;;
52104;SDS011;38103;42.776;23.112;2023-03-01T06:56:20;14.85;;;6.20;;
52104;SDS011;38103;42.776;23.112;2023-03-01T06:58:45;13.23;;;5.78;;
52104;SDS011;38103;42.776;23.112;2023-03-01T07:01:11;10.82;;;4.75;;
52104;SDS011;38103;42.776;23.112;2023-03-01T07:03:36;11.35;;;5.00;;
52104;SDS011;38103;42.776;23.112;2023-03-01T07:06:01;11.35;;;5.07;;
52104;SDS011;38103;42.776;23.112;2023-03-01T07:08:27;11.88;;;4.70;;
52104;SDS011;38103;42.776;23.112;2023-03-01T07:10:56;13.45;;;6.28;;
52104;SDS011;38103;42.776;23.112;2023-03-01T07:13:26;15.57;;;7.75;;
52104;SDS011;38103;42.776;23.112;2023-03-01T07:15:52;11.18;;;5.15;;
52104;SDS011;38103;42.776;23.112;2023-03-01T07:18:17;13.10;;;5.35;;
52104;SDS011;38103;42.776;23.112;2023-03-01T07:20:43;11.60;;;5.13;;
52104;SDS011;38103;42.776;23.112;2023-03-01T07:23:08;10.57;;;4.80;;
52104;SDS011;38103;42.776;23.112;2023-03-01T07:25:33;13.25;;;5.35;;
52104;SDS011;38103;42.776;23.112;2023-03-01T07:27:59;12.52;;;4.78;;
52104;SDS011;38103;42.776;23.112;2023-03-01T07:30:24;12.60;;;4.82;;
52104;SDS011;38103;42.776;23.112;2023-03-01T07:32:52;12.02;;;4.55;;
52104;SDS011;38103;42.776;23.112;2023-03-01T07:35:18;10.65;;;4.43;;
52104;SDS011;38103;42.776;23.112;2023-03-01T07:37:43;9.82;;;4.38;;
52104;SDS011;38103;42.776;23.112;2023-03-01T07:40:09;10.85;;;4.18;;
52104;SDS011;38103;42.776;23.112;2023-03-01T07:42:35;9.80;;;4.38;;
52104;SDS011;38103;42.776;23.112;2023-03-01T07:45:00;10.90;;;3.97;;
52104;SDS011;38103;42.776;23.112;2023-03-01T07:47:26;13.90;;;4.65;;
52104;SDS011;38103;42.776;23.112;2023-03-01T07:49:51;11.60;;;4.40;;
52104;SDS011;38103;42.776;23.112;2023-03-01T07:52:17;11.27;;;5.13;;
52104;SDS011;38103;42.776;23.112;2023-03-01T07:54:42;13.63;;;5.97;;
52104;SDS011;38103;42.776;23.112;2023-03-01T07:57:09;18.75;;;8.38;;
52104;SDS011;38103;42.776;23.112;2023-03-01T07:59:35;15.13;;;8.02;;
52104;SDS011;38103;42.776;23.112;2023-03-01T08:02:00;13.23;;;5.45;;
52104;SDS011;38103;42.776;23.112;2023-03-01T08:04:26;11.10;;;5.18;;
52104;SDS011;38103;42.776;23.112;2023-03-01T08:06:52;12.02;;;5.18;;
52104;SDS011;38103;42.776;23.112;2023-03-01T08:09:17;13.70;;;5.82;;
52104;SDS011;38103;42.776;23.112;2023-03-01T08:11:43;11.68;;;5.15;;
52104;SDS011;38103;42.776;23.112;2023-03-01T08:14:08;11.60;;;4.75;;
52104;SDS011;38103;42.776;23.112;2023-03-01T08:16:35;12.25;;;4.72;;
52104;SDS011;38103;42.776;23.112;2023-03-01T08:19:08;10.63;;;4.80;;
52104;SDS011;38103;42.776;23.112;2023-03-01T08:21:34;9.82;;;3.90;;
52104;SDS011;38103;42.776;23.112;2023-03-01T08:24:00;9.82;;;4.15;;
52104;SDS011;38103;42.776;23.112;2023-03-01T08:26:27;10.13;;;4.78;;
52104;SDS011;38103;42.776;23.112;2023-03-01T08:28:52;10.75;;;4.57;;
52104;SDS011;38103;42.776;23.112;2023-03-01T08:31:22;11.82;;;5.20;;
52104;SDS011;38103;42.776;23.112;2023-03-01T08:33:50;12.43;;;4.65;;
52104;SDS011;38103;42.776;23.112;2023-03-01T08:36:20;12.27;;;4.50;;
52104;SDS011;38103;42.776;23.112;2023-03-01T08:38:50;13.65;;;5.85;;
52104;SDS011;38103;42.776;23.112;2023-03-01T08:41:16;10.77;;;4.53;;
52104;SDS011;38103;42.776;23.112;2023-03-01T08:43:42;10.88;;;4.70;;
52104;SDS011;38103;42.776;23.112;2023-03-01T08:46:07;12.07;;;4.10;;
52104;SDS011;38103;42.776;23.112;2023-03-01T08:48:33;10.65;;;4.38;;
52104;SDS011;38103;42.776;23.112;2023-03-01T08:51:15;10.20;;;4.45;;
52104;SDS011;38103;42.776;23.112;2023-03-01T08:53:42;9.90;;;4.30;;
52104;SDS011;38103;42.776;23.112;2023-03-01T08:56:08;10.32;;;4.07;;
52104;SDS011;38103;42.776;23.112;2023-03-01T08:58:34;11.65;;;4.60;;
52104;SDS011;38103;42.776;23.112;2023-03-01T09:01:00;11.07;;;4.25;;
52104;SDS011;38103;42.776;23.112;2023-03-01T09:03:25;10.52;;;4.00;;
52104;SDS011;38103;42.776;23.112;2023-03-01T09:05:52;9.73;;;3.83;;
52104;SDS011;38103;42.776;23.112;2023-03-01T09:08:18;11.43;;;4.32;;
52104;SDS011;38103;42.776;23.112;2023-03-01T09:10:44;15.35;;;4.88;;
52104;SDS011;38103;42.776;23.112;2023-03-01T09:13:09;10.73;;;4.45;;
52104;SDS011;38103;42.776;23.112;2023-03-01T09:15:38;12.43;;;5.25;;
52104;SDS011;38103;42.776;23.112;2023-03-01T09:18:04;12.70;;;5.97;;
52104;SDS011;38103;42.776;23.112;2023-03-01T09:20:30;13.02;;;5.72;;
52104;SDS011;38103;42.776;23.112;2023-03-01T09:22:57;14.10;;;6.47;;
52104;SDS011;38103;42.776;23.112;2023-03-01T09:25:22;14.70;;;6.38;;
52104;SDS011;38103;42.776;23.112;2023-03-01T09:27:52;13.63;;;5.90;;
52104;SDS011;38103;42.776;23.112;2023-03-01T09:30:18;12.30;;;6.32;;
52104;SDS011;38103;42.776;23.112;2023-03-01T09:32:44;13.80;;;6.45;;
52104;SDS011;38103;42.776;23.112;2023-03-01T09:35:10;12.75;;;5.93;;
52104;SDS011;38103;42.776;23.112;2023-03-01T09:37:36;12.25;;;6.03;;
52104;SDS011;38103;42.776;23.112;2023-03-01T09:40:03;14.10;;;6.78;;
52104;SDS011;38103;42.776;23.112;2023-03-01T09:42:31;13.20;;;6.05;;
52104;SDS011;38103;42.776;23.112;2023-03-01T09:45:03;16.13;;;6.75;;
52104;SDS011;38103;42.776;23.112;2023-03-01T09:47:33;12.80;;;6.30;;
52104;SDS011;38103;42.776;23.112;2023-03-01T09:50:02;11.95;;;6.18;;
52104;SDS011;38103;42.776;23.112;2023-03-01T09:52:38;12.63;;;6.65;;
52104;SDS011;38103;42.776;23.112;2023-03-01T09:55:08;12.70;;;6.30;;
52104;SDS011;38103;42.776;23.112;2023-03-01T10:00:20;13.88;;;6.68;;
52104;SDS011;38103;42.776;23.112;2023-03-01T10:02:57;12.65;;;6.35;;
52104;SDS011;38103;42.776;23.112;2023-03-01T10:11:30;11.15;;;5.07;;
52104;SDS011;38103;42.776;23.112;2023-03-01T10:19:05;13.05;;;5.43;;
52104;SDS011;38103;42.776;23.112;2023-03-01T10:21:41;13.38;;;5.95;;
52104;SDS011;38103;42.776;23.112;2023-03-01T10:24:11;11.25;;;5.18;;
52104;SDS011;38103;42.776;23.112;2023-03-01T10:29:13;11.23;;;4.60;;
52104;SDS011;38103;42.776;23.112;2023-03-01T10:31:46;12.38;;;4.88;;
52104;SDS011;38103;42.776;23.112;2023-03-01T10:34:18;11.65;;;5.22;;
52104;SDS011;38103;42.776;23.112;2023-03-01T10:36:50;10.18;;;4.65;;
52104;SDS011;38103;42.776;23.112;2023-03-01T10:39:17;11.18;;;5.20;;
52104;SDS011;38103;42.776;23.112;2023-03-01T10:41:52;12.13;;;5.15;;
52104;SDS011;38103;42.776;23.112;2023-03-01T10:44:42;11.30;;;5.25;;
52104;SDS011;38103;42.776;23.112;2023-03-01T10:47:20;11.52;;;4.53;;
52104;SDS011;38103;42.776;23.112;2023-03-01T10:49:53;11.90;;;4.38;;
52104;SDS011;38103;42.776;23.112;2023-03-01T10:52:20;10.70;;;4.18;;
52104;SDS011;38103;42.776;23.112;2023-03-01T10:54:52;10.10;;;4.22;;
52104;SDS011;38103;42.776;23.112;2023-03-01T10:57:43;10.70;;;4.18;;
52104;SDS011;38103;42.776;23.112;2023-03-01T11:02:40;9.55;;;4.03;;
52104;SDS011;38103;42.776;23.112;2023-03-01T11:07:47;9.07;;;3.70;;
52104;SDS011;38103;42.776;23.112;2023-03-01T11:10:38;9.65;;;4.05;;
52104;SDS011;38103;42.776;23.112;2023-03-01T11:13:07;10.05;;;4.28;;
52104;SDS011;38103;42.776;23.112;2023-03-01T11:15:40;11.43;;;3.95;;
52104;SDS011;38103;42.776;23.112;2023-03-01T11:18:05;11.55;;;3.80;;
52104;SDS011;38103;42.776;23.112;2023-03-01T11:20:48;11.20;;;3.83;;
52104;SDS011;38103;42.776;23.112;2023-03-01T11:23:18;9.55;;;4.10;;
52104;SDS011;38103;42.776;23.112;2023-03-01T11:25:49;9.20;;;3.67;;
52104;SDS011;38103;42.776;23.112;2023-03-01T11:28:20;9.60;;;3.70;;
52104;SDS011;38103;42.776;23.112;2023-03-01T11:33:39;8.82;;;3.58;;
52104;SDS011;38103;42.776;23.112;2023-03-01T11:38:40;10.82;;;3.70;;
52104;SDS011;38103;42.776;23.112;2023-03-01T11:49:12;7.80;;;2.75;;
52104;SDS011;38103;42.776;23.112;2023-03-01T12:02:49;8.88;;;3.20;;
52104;SDS011;38103;42.776;23.112;2023-03-01T12:08:17;8.88;;;3.60;;
52104;SDS011;38103;42.776;23.112;2023-03-01T12:11:03;8.38;;;2.95;;
52104;SDS011;38103;42.776;23.112;2023-03-01T12:18:57;10.57;;;3.50;;
52104;SDS011;38103;42.776;23.112;2023-03-01T12:24:43;9.25;;;3.40;;
52104;SDS011;38103;42.776;23.112;2023-03-01T12:33:32;8.20;;;2.67;;
52104;SDS011;38103;42.776;23.112;2023-03-01T12:39:14;13.48;;;4.90;;
52104;SDS011;38103;42.776;23.112;2023-03-01T12:42:41;10.70;;;2.90;;
52104;SDS011;38103;42.776;23.112;2023-03-01T12:50:50;11.05;;;3.63;;
52104;SDS011;38103;42.776;23.112;2023-03-01T12:53:28;11.88;;;3.75;;
52104;SDS011;38103;42.776;23.112;2023-03-01T12:56:01;10.63;;;3.83;;
52104;SDS011;38103;42.776;23.112;2023-03-01T12:58:42;10.30;;;3.90;;
52104;SDS011;38103;42.776;23.112;2023-03-01T13:04:16;11.85;;;4.05;;
52104;SDS011;38103;42.776;23.112;2023-03-01T13:11:59;11.18;;;4.07;;
52104;SDS011;38103;42.776;23.112;2023-03-01T13:16:51;12.55;;;4.45;;
52104;SDS011;38103;42.776;23.112;2023-03-01T13:19:18;10.68;;;4.22;;
52104;SDS011;38103;42.776;23.112;2023-03-01T13:21:46;11.43;;;4.40;;
52104;SDS011;38103;42.776;23.112;2023-03-01T13:27:26;11.50;;;3.95;;
52104;SDS011;38103;42.776;23.112;2023-03-01T13:29:57;11.38;;;4.80;;
52104;SDS011;38103;42.776;23.112;2023-03-01T13:35:40;12.45;;;4.13;;
52104;SDS011;38103;42.776;23.112;2023-03-01T13:37:51;10.93;;;3.80;;
52104;SDS011;38103;42.776;23.112;2023-03-01T13:42:44;12.95;;;4.55;;
52104;SDS011;38103;42.776;23.112;2023-03-01T13:47:56;10.55;;;4.47;;
52104;SDS011;38103;42.776;23.112;2023-03-01T13:50:28;11.75;;;4.78;;
52104;SDS011;38103;42.776;23.112;2023-03-01T13:52:59;12.77;;;4.82;;
52104;SDS011;38103;42.776;23.112;2023-03-01T13:55:31;14.10;;;5.57;;
52104;SDS011;38103;42.776;23.112;2023-03-01T13:58:16;11.95;;;4.93;;
52104;SDS011;38103;42.776;23.112;2023-03-01T14:00:46;14.23;;;5.00;;
52104;SDS011;38103;42.776;23.112;2023-03-01T14:05:57;15.13;;;4.82;;
52104;SDS011;38103;42.776;23.112;2023-03-01T14:08:34;14.20;;;5.95;;
52104;SDS011;38103;42.776;23.112;2023-03-01T14:16:40;12.00;;;5.35;;
52104;SDS011;38103;42.776;23.112;2023-03-01T14:19:20;14.82;;;6.45;;
52104;SDS011;38103;42.776;23.112;2023-03-01T14:24:46;13.55;;;5.72;;
52104;SDS011;38103;42.776;23.112;2023-03-01T14:27:14;13.40;;;5.60;;
52104;SDS011;38103;42.776;23.112;2023-03-01T14:29:40;14.80;;;6.72;;
52104;SDS011;38103;42.776;23.112;2023-03-01T14:32:19;15.70;;;7.15;;
52104;SDS011;38103;42.776;23.112;2023-03-01T14:34:47;12.10;;;5.35;;
52104;SDS011;38103;42.776;23.112;2023-03-01T14:37:18;12.80;;;5.35;;
52104;SDS011;38103;42.776;23.112;2023-03-01T14:39:52;12.70;;;5.38;;
52104;SDS011;38103;42.776;23.112;2023-03-01T14:42:19;15.23;;;5.85;;
52104;SDS011;38103;42.776;23.112;2023-03-01T14:44:47;13.70;;;5.18;;
52104;SDS011;38103;42.776;23.112;2023-03-01T14:47:29;12.65;;;5.65;;
52104;SDS011;38103;42.776;23.112;2023-03-01T14:49:58;13.90;;;5.80;;
52104;SDS011;38103;42.776;23.112;2023-03-01T14:55:15;13.27;;;5.32;;
52104;SDS011;38103;42.776;23.112;2023-03-01T14:57:43;12.52;;;5.40;;
52104;SDS011;38103;42.776;23.112;2023-03-01T15:00:16;12.48;;;4.75;;
52104;SDS011;38103;42.776;23.112;2023-03-01T15:02:44;11.40;;;4.78;;
52104;SDS011;38103;42.776;23.112;2023-03-01T15:05:13;15.48;;;5.15;;
52104;SDS011;38103;42.776;23.112;2023-03-01T15:07:40;12.40;;;4.53;;
52104;SDS011;38103;42.776;23.112;2023-03-01T15:13:20;12.52;;;4.80;;
52104;SDS011;38103;42.776;23.112;2023-03-01T15:15:48;14.75;;;5.30;;
52104;SDS011;38103;42.776;23.112;2023-03-01T15:20:47;12.00;;;4.55;;
52104;SDS011;38103;42.776;23.112;2023-03-01T15:23:22;11.77;;;4.55;;
52104;SDS011;38103;42.776;23.112;2023-03-01T15:28:21;11.38;;;4.10;;
52104;SDS011;38103;42.776;23.112;2023-03-01T15:30:56;12.77;;;4.22;;
52104;SDS011;38103;42.776;23.112;2023-03-01T15:35:52;12.95;;;5.10;;
52104;SDS011;38103;42.776;23.112;2023-03-01T15:40:53;13.77;;;4.72;;
52104;SDS011;38103;42.776;23.112;2023-03-01T15:46:12;12.75;;;4.70;;
52104;SDS011;38103;42.776;23.112;2023-03-01T15:48:46;17.17;;;4.80;;
52104;SDS011;38103;42.776;23.112;2023-03-01T15:51:14;13.45;;;5.38;;
52104;SDS011;38103;42.776;23.112;2023-03-01T15:53:41;12.93;;;4.50;;
52104;SDS011;38103;42.776;23.112;2023-03-01T15:56:08;11.52;;;4.30;;
52104;SDS011;38103;42.776;23.112;2023-03-01T15:58:34;11.65;;;4.47;;
52104;SDS011;38103;42.776;23.112;2023-03-01T16:00:59;14.38;;;5.38;;
52104;SDS011;38103;42.776;23.112;2023-03-01T16:03:25;13.35;;;4.53;;
52104;SDS011;38103;42.776;23.112;2023-03-01T16:05:51;12.65;;;4.80;;
52104;SDS011;38103;42.776;23.112;2023-03-01T16:08:17;20.35;;;5.20;;
52104;SDS011;38103;42.776;23.112;2023-03-01T16:10:43;17.48;;;5.47;;
52104;SDS011;38103;42.776;23.112;2023-03-01T16:13:09;13.25;;;4.95;;
52104;SDS011;38103;42.776;23.112;2023-03-01T16:15:38;14.27;;;5.28;;
52104;SDS011;38103;42.776;23.112;2023-03-01T16:18:04;14.05;;;5.20;;
52104;SDS011;38103;42.776;23.112;2023-03-01T16:20:31;12.65;;;4.93;;
52104;SDS011;38103;42.776;23.112;2023-03-01T16:22:57;15.20;;;5.55;;
52104;SDS011;38103;42.776;23.112;2023-03-01T16:25:25;14.18;;;5.72;;
52104;SDS011;38103;42.776;23.112;2023-03-01T16:27:50;14.55;;;4.43;;
52104;SDS011;38103;42.776;23.112;2023-03-01T16:30:18;15.88;;;5.10;;
52104;SDS011;38103;42.776;23.112;2023-03-01T16:32:45;13.60;;;5.05;;
52104;SDS011;38103;42.776;23.112;2023-03-01T16:35:12;13.50;;;5.60;;
52104;SDS011;38103;42.776;23.112;2023-03-01T16:37:39;14.75;;;5.22;;
52104;SDS011;38103;42.776;23.112;2023-03-01T16:40:05;16.63;;;5.45;;
52104;SDS011;38103;42.776;23.112;2023-03-01T16:42:37;13.15;;;5.32;;
52104;SDS011;38103;42.776;23.112;2023-03-01T16:45:02;13.07;;;4.93;;
52104;SDS011;38103;42.776;23.112;2023-03-01T16:47:28;12.75;;;5.03;;
52104;SDS011;38103;42.776;23.112;2023-03-01T16:49:55;14.52;;;5.35;;